sensor_id;sensor_type;location;lat;lon;timestamp;P1;durP1;ratioP1;P2;durP2;ratioP2
487;SDS011;16586;48.976;9.584;2022-07-23T00:02:21;3.30;;;3.10;;
487;SDS011;16586;48.976;9.584;2022-07-23T00:04:48;3.20;;;3.00;;
487;SDS011;16586;48.976;9.584;2022-07-23T00:07:16;3.95;;;3.75;;
487;SDS011;16586;48.976;9.584;2022-07-23T00:09:43;3.45;;;3.35;;
487;SDS011;16586;48.976;9.584;2022-07-23T00:12:10;3.60;;;2.95;;
487;SDS011;16586;48.976;9.584;2022-07-23T00:14:38;3.83;;;3.45;;
487;SDS011;16586;48.976;9.584;2022-07-23T00:17:05;3.45;;;3.25;;
487;SDS011;16586;48.976;9.584;2022-07-23T00:19:32;3.55;;;3.35;;
487;SDS011;16586;48.976;9.584;2022-07-23T00:21:59;2.90;;;2.70;;
487;SDS011;16586;48.976;9.584;2022-07-23T00:24:26;3.05;;;2.85;;
487;SDS011;16586;48.976;9.584;2022-07-23T00:26:53;3.42;;;2.65;;
487;SDS011;16586;48.976;9.584;2022-07-23T00:29:20;2.73;;;2.53;;
487;SDS011;16586;48.976;9.584;2022-07-23T00:31:48;3.45;;;3.25;;
487;SDS011;16586;48.976;9.584;2022-07-23T00:34:15;2.88;;;2.67;;
487;SDS011;16586;48.976;9.584;2022-07-23T00:36:42;2.90;;;2.70;;
487;SDS011;16586;48.976;9.584;2022-07-23T00:39:09;3.47;;;3.28;;
487;SDS011;16586;48.976;9.584;2022-07-23T00:41:35;2.70;;;2.35;;
487;SDS011;16586;48.976;9.584;2022-07-23T00:44:18;2.87;;;2.67;;
487;SDS011;16586;48.976;9.584;2022-07-23T00:46:48;3.13;;;2.93;;
487;SDS011;16586;48.976;9.584;2022-07-23T00:49:18;2.60;;;2.40;;
487;SDS011;16586;48.976;9.584;2022-07-23T00:51:46;2.90;;;2.70;;
487;SDS011;16586;48.976;9.584;2022-07-23T00:54:13;2.90;;;2.70;;
487;SDS011;16586;48.976;9.584;2022-07-23T00:56:41;3.92;;;3.72;;
487;SDS011;16586;48.976;9.584;2022-07-23T00:59:09;2.78;;;2.53;;
487;SDS011;16586;48.976;9.584;2022-07-23T01:01:36;2.88;;;2.67;;
487;SDS011;16586;48.976;9.584;2022-07-23T01:04:05;2.85;;;2.65;;
487;SDS011;16586;48.976;9.584;2022-07-23T01:06:33;3.10;;;2.90;;
487;SDS011;16586;48.976;9.584;2022-07-23T01:09:02;3.13;;;2.92;;
487;SDS011;16586;48.976;9.584;2022-07-23T01:11:31;2.50;;;2.30;;
487;SDS011;16586;48.976;9.584;2022-07-23T01:13:58;2.50;;;2.30;;
487;SDS011;16586;48.976;9.584;2022-07-23T01:16:33;3.45;;;3.25;;
487;SDS011;16586;48.976;9.584;2022-07-23T01:19:00;2.67;;;2.47;;
487;SDS011;16586;48.976;9.584;2022-07-23T01:21:28;2.85;;;2.65;;
487;SDS011;16586;48.976;9.584;2022-07-23T01:23:57;2.45;;;2.25;;
487;SDS011;16586;48.976;9.584;2022-07-23T01:26:24;2.60;;;2.10;;
487;SDS011;16586;48.976;9.584;2022-07-23T01:28:52;2.80;;;2.65;;
487;SDS011;16586;48.976;9.584;2022-07-23T01:31:19;2.50;;;2.30;;
487;SDS011;16586;48.976;9.584;2022-07-23T01:33:47;2.85;;;2.65;;
487;SDS011;16586;48.976;9.584;2022-07-23T01:36:14;2.50;;;2.30;;
487;SDS011;16586;48.976;9.584;2022-07-23T01:38:41;2.80;;;2.10;;
487;SDS011;16586;48.976;9.584;2022-07-23T01:41:09;3.13;;;3.00;;
487;SDS011;16586;48.976;9.584;2022-07-23T01:43:36;2.13;;;1.80;;
487;SDS011;16586;48.976;9.584;2022-07-23T01:46:03;2.55;;;2.35;;
487;SDS011;16586;48.976;9.584;2022-07-23T01:48:30;2.55;;;2.10;;
487;SDS011;16586;48.976;9.584;2022-07-23T01:50:57;3.60;;;2.80;;
487;SDS011;16586;48.976;9.584;2022-07-23T01:53:24;2.92;;;2.72;;
487;SDS011;16586;48.976;9.584;2022-07-23T01:55:51;2.33;;;2.13;;
487;SDS011;16586;48.976;9.584;2022-07-23T01:58:19;3.55;;;3.35;;
487;SDS011;16586;48.976;9.584;2022-07-23T02:00:46;2.28;;;2.08;;
487;SDS011;16586;48.976;9.584;2022-07-23T02:03:13;2.92;;;2.47;;
487;SDS011;16586;48.976;9.584;2022-07-23T02:05:40;2.83;;;2.63;;
487;SDS011;16586;48.976;9.584;2022-07-23T02:08:07;2.47;;;2.28;;
487;SDS011;16586;48.976;9.584;2022-07-23T02:10:34;2.50;;;2.30;;
487;SDS011;16586;48.976;9.584;2022-07-23T02:13:00;2.80;;;2.60;;
487;SDS011;16586;48.976;9.584;2022-07-23T02:15:29;2.80;;;2.60;;
487;SDS011;16586;48.976;9.584;2022-07-23T02:17:56;2.85;;;2.65;;
487;SDS011;16586;48.976;9.584;2022-07-23T02:20:23;2.40;;;2.28;;
487;SDS011;16586;48.976;9.584;2022-07-23T02:22:50;2.53;;;2.37;;
487;SDS011;16586;48.976;9.584;2022-07-23T02:25:17;2.40;;;2.20;;
487;SDS011;16586;48.976;9.584;2022-07-23T02:27:44;2.40;;;2.20;;
487;SDS011;16586;48.976;9.584;2022-07-23T02:30:11;2.70;;;2.50;;
487;SDS011;16586;48.976;9.584;2022-07-23T02:32:39;2.88;;;2.60;;
487;SDS011;16586;48.976;9.584;2022-07-23T02:35:07;3.00;;;2.80;;
487;SDS011;16586;48.976;9.584;2022-07-23T02:37:34;2.42;;;2.22;;
487;SDS011;16586;48.976;9.584;2022-07-23T02:40:01;2.83;;;2.47;;
487;SDS011;16586;48.976;9.584;2022-07-23T02:42:27;2.70;;;2.50;;
487;SDS011;16586;48.976;9.584;2022-07-23T02:44:54;3.00;;;2.70;;
487;SDS011;16586;48.976;9.584;2022-07-23T02:47:21;2.50;;;2.30;;
487;SDS011;16586;48.976;9.584;2022-07-23T02:49:49;2.90;;;2.60;;
487;SDS011;16586;48.976;9.584;2022-07-23T02:52:16;2.47;;;2.28;;
487;SDS011;16586;48.976;9.584;2022-07-23T02:54:43;2.63;;;2.42;;
487;SDS011;16586;48.976;9.584;2022-07-23T02:57:10;2.38;;;2.17;;
487;SDS011;16586;48.976;9.584;2022-07-23T02:59:37;2.70;;;2.50;;
487;SDS011;16586;48.976;9.584;2022-07-23T03:02:04;2.90;;;2.63;;
487;SDS011;16586;48.976;9.584;2022-07-23T03:04:31;2.38;;;2.20;;
487;SDS011;16586;48.976;9.584;2022-07-23T03:06:59;2.43;;;2.23;;
487;SDS011;16586;48.976;9.584;2022-07-23T03:09:26;3.67;;;2.90;;
487;SDS011;16586;48.976;9.584;2022-07-23T03:11:53;2.55;;;2.35;;
487;SDS011;16586;48.976;9.584;2022-07-23T03:14:20;3.00;;;2.80;;
487;SDS011;16586;48.976;9.584;2022-07-23T03:16:46;2.83;;;2.58;;
487;SDS011;16586;48.976;9.584;2022-07-23T03:19:14;3.22;;;3.03;;
487;SDS011;16586;48.976;9.584;2022-07-23T03:21:41;3.40;;;3.20;;
487;SDS011;16586;48.976;9.584;2022-07-23T03:24:10;2.80;;;2.40;;
487;SDS011;16586;48.976;9.584;2022-07-23T03:26:37;2.17;;;2.03;;
487;SDS011;16586;48.976;9.584;2022-07-23T03:29:04;2.88;;;2.67;;
487;SDS011;16586;48.976;9.584;2022-07-23T03:31:31;2.77;;;2.57;;
487;SDS011;16586;48.976;9.584;2022-07-23T03:33:58;3.37;;;3.17;;
487;SDS011;16586;48.976;9.584;2022-07-23T03:36:27;3.05;;;2.85;;
487;SDS011;16586;48.976;9.584;2022-07-23T03:38:54;3.50;;;3.10;;
487;SDS011;16586;48.976;9.584;2022-07-23T03:41:23;3.80;;;3.60;;
487;SDS011;16586;48.976;9.584;2022-07-23T03:43:50;3.40;;;3.20;;
487;SDS011;16586;48.976;9.584;2022-07-23T03:46:16;2.92;;;2.72;;
487;SDS011;16586;48.976;9.584;2022-07-23T03:48:43;2.92;;;2.72;;
487;SDS011;16586;48.976;9.584;2022-07-23T03:51:10;2.47;;;2.38;;
487;SDS011;16586;48.976;9.584;2022-07-23T03:53:37;2.75;;;2.35;;
487;SDS011;16586;48.976;9.584;2022-07-23T03:56:04;2.90;;;2.70;;
487;SDS011;16586;48.976;9.584;2022-07-23T03:58:33;3.10;;;2.90;;
487;SDS011;16586;48.976;9.584;2022-07-23T04:01:00;3.30;;;3.10;;
487;SDS011;16586;48.976;9.584;2022-07-23T04:03:26;3.00;;;2.80;;
487;SDS011;16586;48.976;9.584;2022-07-23T04:05:54;4.35;;;4.05;;
487;SDS011;16586;48.976;9.584;2022-07-23T04:08:20;2.80;;;2.60;;
487;SDS011;16586;48.976;9.584;2022-07-23T04:10:47;2.80;;;2.60;;
487;SDS011;16586;48.976;9.584;2022-07-23T04:13:14;3.30;;;3.10;;
487;SDS011;16586;48.976;9.584;2022-07-23T04:15:43;3.50;;;3.30;;
487;SDS011;16586;48.976;9.584;2022-07-23T04:18:09;2.38;;;2.17;;
487;SDS011;16586;48.976;9.584;2022-07-23T04:20:36;2.88;;;2.72;;
487;SDS011;16586;48.976;9.584;2022-07-23T04:23:03;2.50;;;2.30;;
487;SDS011;16586;48.976;9.584;2022-07-23T04:25:30;3.13;;;2.92;;
487;SDS011;16586;48.976;9.584;2022-07-23T04:27:57;2.83;;;2.63;;
487;SDS011;16586;48.976;9.584;2022-07-23T04:30:24;4.05;;;3.85;;
487;SDS011;16586;48.976;9.584;2022-07-23T04:32:52;3.42;;;3.22;;
487;SDS011;16586;48.976;9.584;2022-07-23T04:35:19;3.10;;;2.45;;
487;SDS011;16586;48.976;9.584;2022-07-23T04:37:46;3.97;;;3.78;;
487;SDS011;16586;48.976;9.584;2022-07-23T04:40:13;4.60;;;4.30;;
487;SDS011;16586;48.976;9.584;2022-07-23T04:42:40;3.75;;;3.55;;
487;SDS011;16586;48.976;9.584;2022-07-23T04:45:07;3.13;;;2.92;;
487;SDS011;16586;48.976;9.584;2022-07-23T04:47:35;3.20;;;3.00;;
487;SDS011;16586;48.976;9.584;2022-07-23T04:50:03;3.63;;;3.42;;
487;SDS011;16586;48.976;9.584;2022-07-23T04:52:30;3.22;;;3.03;;
487;SDS011;16586;48.976;9.584;2022-07-23T04:54:57;3.45;;;3.25;;
487;SDS011;16586;48.976;9.584;2022-07-23T04:57:24;3.40;;;3.20;;
487;SDS011;16586;48.976;9.584;2022-07-23T04:59:51;3.20;;;3.00;;
487;SDS011;16586;48.976;9.584;2022-07-23T05:02:18;4.03;;;3.78;;
487;SDS011;16586;48.976;9.584;2022-07-23T05:04:45;2.90;;;2.70;;
487;SDS011;16586;48.976;9.584;2022-07-23T05:07:13;3.30;;;3.10;;
487;SDS011;16586;48.976;9.584;2022-07-23T05:09:40;3.38;;;3.17;;
487;SDS011;16586;48.976;9.584;2022-07-23T05:12:08;3.22;;;3.03;;
487;SDS011;16586;48.976;9.584;2022-07-23T05:14:35;3.88;;;3.67;;
487;SDS011;16586;48.976;9.584;2022-07-23T05:17:01;3.63;;;3.43;;
487;SDS011;16586;48.976;9.584;2022-07-23T05:19:28;3.10;;;3.00;;
487;SDS011;16586;48.976;9.584;2022-07-23T05:21:55;4.85;;;4.55;;
487;SDS011;16586;48.976;9.584;2022-07-23T05:24:24;3.50;;;3.30;;
487;SDS011;16586;48.976;9.584;2022-07-23T05:26:50;3.10;;;2.90;;
487;SDS011;16586;48.976;9.584;2022-07-23T05:29:17;3.60;;;3.40;;
487;SDS011;16586;48.976;9.584;2022-07-23T05:31:45;3.72;;;3.53;;
487;SDS011;16586;48.976;9.584;2022-07-23T05:34:12;3.20;;;3.00;;
487;SDS011;16586;48.976;9.584;2022-07-23T05:36:39;4.00;;;3.80;;
487;SDS011;16586;48.976;9.584;2022-07-23T05:39:05;4.93;;;4.63;;
487;SDS011;16586;48.976;9.584;2022-07-23T05:41:34;3.25;;;3.05;;
487;SDS011;16586;48.976;9.584;2022-07-23T05:44:01;4.68;;;4.38;;
487;SDS011;16586;48.976;9.584;2022-07-23T05:46:28;14.43;;;13.68;;
487;SDS011;16586;48.976;9.584;2022-07-23T05:48:54;3.70;;;3.50;;
487;SDS011;16586;48.976;9.584;2022-07-23T05:51:21;4.10;;;3.60;;
487;SDS011;16586;48.976;9.584;2022-07-23T05:53:49;3.40;;;3.20;;
487;SDS011;16586;48.976;9.584;2022-07-23T05:56:18;3.30;;;3.10;;
487;SDS011;16586;48.976;9.584;2022-07-23T05:58:46;3.53;;;2.70;;
487;SDS011;16586;48.976;9.584;2022-07-23T06:01:13;4.53;;;4.22;;
487;SDS011;16586;48.976;9.584;2022-07-23T06:03:40;2.92;;;2.72;;
487;SDS011;16586;48.976;9.584;2022-07-23T06:06:07;3.25;;;3.05;;
487;SDS011;16586;48.976;9.584;2022-07-23T06:08:34;3.27;;;3.07;;
487;SDS011;16586;48.976;9.584;2022-07-23T06:11:01;2.70;;;2.50;;
487;SDS011;16586;48.976;9.584;2022-07-23T06:13:28;3.37;;;3.17;;
487;SDS011;16586;48.976;9.584;2022-07-23T06:15:56;3.42;;;3.22;;
487;SDS011;16586;48.976;9.584;2022-07-23T06:18:23;4.68;;;4.38;;
487;SDS011;16586;48.976;9.584;2022-07-23T06:20:50;3.70;;;3.50;;
487;SDS011;16586;48.976;9.584;2022-07-23T06:23:17;70.18;;;66.78;;
487;SDS011;16586;48.976;9.584;2022-07-23T06:25:44;3.40;;;3.20;;
487;SDS011;16586;48.976;9.584;2022-07-23T06:28:11;3.20;;;3.00;;
487;SDS011;16586;48.976;9.584;2022-07-23T06:30:38;2.97;;;2.78;;
487;SDS011;16586;48.976;9.584;2022-07-23T06:33:06;2.40;;;2.20;;
487;SDS011;16586;48.976;9.584;2022-07-23T06:35:33;3.30;;;3.10;;
487;SDS011;16586;48.976;9.584;2022-07-23T06:38:00;2.60;;;2.40;;
487;SDS011;16586;48.976;9.584;2022-07-23T06:40:27;3.90;;;3.70;;
487;SDS011;16586;48.976;9.584;2022-07-23T06:42:54;3.10;;;2.20;;
487;SDS011;16586;48.976;9.584;2022-07-23T06:45:20;3.22;;;3.03;;
487;SDS011;16586;48.976;9.584;2022-07-23T06:47:47;3.20;;;2.55;;
487;SDS011;16586;48.976;9.584;2022-07-23T06:50:16;3.77;;;3.57;;
487;SDS011;16586;48.976;9.584;2022-07-23T06:52:43;3.25;;;3.05;;
487;SDS011;16586;48.976;9.584;2022-07-23T06:55:10;3.50;;;3.30;;
487;SDS011;16586;48.976;9.584;2022-07-23T06:57:36;3.30;;;3.17;;
487;SDS011;16586;48.976;9.584;2022-07-23T07:00:04;3.07;;;2.87;;
487;SDS011;16586;48.976;9.584;2022-07-23T07:02:31;2.80;;;2.60;;
487;SDS011;16586;48.976;9.584;2022-07-23T07:04:58;3.35;;;3.20;;
487;SDS011;16586;48.976;9.584;2022-07-23T07:07:27;3.20;;;3.00;;
487;SDS011;16586;48.976;9.584;2022-07-23T07:09:54;43.28;;;41.17;;
487;SDS011;16586;48.976;9.584;2022-07-23T07:12:21;3.60;;;3.40;;
487;SDS011;16586;48.976;9.584;2022-07-23T07:14:47;3.40;;;3.15;;
487;SDS011;16586;48.976;9.584;2022-07-23T07:17:14;3.30;;;3.10;;
487;SDS011;16586;48.976;9.584;2022-07-23T07:19:41;3.25;;;3.05;;
487;SDS011;16586;48.976;9.584;2022-07-23T07:22:08;3.30;;;3.10;;
487;SDS011;16586;48.976;9.584;2022-07-23T07:24:36;3.50;;;3.30;;
487;SDS011;16586;48.976;9.584;2022-07-23T07:27:03;3.53;;;3.33;;
487;SDS011;16586;48.976;9.584;2022-07-23T07:29:30;4.00;;;3.80;;
487;SDS011;16586;48.976;9.584;2022-07-23T07:31:57;4.07;;;3.45;;
487;SDS011;16586;48.976;9.584;2022-07-23T07:34:24;4.07;;;3.88;;
487;SDS011;16586;48.976;9.584;2022-07-23T07:36:51;3.50;;;3.30;;
487;SDS011;16586;48.976;9.584;2022-07-23T07:39:18;3.40;;;3.20;;
487;SDS011;16586;48.976;9.584;2022-07-23T07:41:46;3.90;;;3.70;;
487;SDS011;16586;48.976;9.584;2022-07-23T07:44:13;4.00;;;3.67;;
487;SDS011;16586;48.976;9.584;2022-07-23T07:46:41;3.70;;;3.50;;
487;SDS011;16586;48.976;9.584;2022-07-23T07:49:08;3.50;;;3.35;;
487;SDS011;16586;48.976;9.584;2022-07-23T07:51:35;3.50;;;3.30;;
487;SDS011;16586;48.976;9.584;2022-07-23T07:54:02;38.22;;;36.33;;
487;SDS011;16586;48.976;9.584;2022-07-23T07:56:29;3.80;;;3.60;;
487;SDS011;16586;48.976;9.584;2022-07-23T07:58:57;3.67;;;3.47;;
487;SDS011;16586;48.976;9.584;2022-07-23T08:01:26;3.58;;;3.38;;
487;SDS011;16586;48.976;9.584;2022-07-23T08:03:52;3.00;;;2.80;;
487;SDS011;16586;48.976;9.584;2022-07-23T08:06:19;3.00;;;2.80;;
487;SDS011;16586;48.976;9.584;2022-07-23T08:08:46;2.90;;;2.70;;
487;SDS011;16586;48.976;9.584;2022-07-23T08:11:13;2.45;;;2.25;;
487;SDS011;16586;48.976;9.584;2022-07-23T08:13:40;2.70;;;2.43;;
487;SDS011;16586;48.976;9.584;2022-07-23T08:16:10;24.20;;;22.98;;
487;SDS011;16586;48.976;9.584;2022-07-23T08:18:37;2.30;;;2.10;;
487;SDS011;16586;48.976;9.584;2022-07-23T08:21:04;2.70;;;2.50;;
487;SDS011;16586;48.976;9.584;2022-07-23T08:23:31;2.50;;;2.30;;
487;SDS011;16586;48.976;9.584;2022-07-23T08:25:58;2.75;;;2.55;;
487;SDS011;16586;48.976;9.584;2022-07-23T08:28:26;2.20;;;2.00;;
487;SDS011;16586;48.976;9.584;2022-07-23T08:30:53;3.65;;;3.45;;
487;SDS011;16586;48.976;9.584;2022-07-23T08:33:21;3.00;;;2.80;;
487;SDS011;16586;48.976;9.584;2022-07-23T08:35:49;3.70;;;3.50;;
487;SDS011;16586;48.976;9.584;2022-07-23T08:38:18;2.90;;;2.70;;
487;SDS011;16586;48.976;9.584;2022-07-23T08:40:47;2.90;;;2.70;;
487;SDS011;16586;48.976;9.584;2022-07-23T08:43:16;3.90;;;3.70;;
487;SDS011;16586;48.976;9.584;2022-07-23T08:45:44;3.90;;;3.70;;
487;SDS011;16586;48.976;9.584;2022-07-23T08:48:14;2.60;;;2.40;;
487;SDS011;16586;48.976;9.584;2022-07-23T08:50:43;2.45;;;2.25;;
487;SDS011;16586;48.976;9.584;2022-07-23T08:53:11;3.08;;;2.88;;
487;SDS011;16586;48.976;9.584;2022-07-23T08:55:38;3.33;;;3.13;;
487;SDS011;16586;48.976;9.584;2022-07-23T08:58:05;2.67;;;2.47;;
487;SDS011;16586;48.976;9.584;2022-07-23T09:00:32;2.78;;;2.40;;
487;SDS011;16586;48.976;9.584;2022-07-23T09:02:59;4.10;;;3.90;;
487;SDS011;16586;48.976;9.584;2022-07-23T09:05:26;2.50;;;2.30;;
487;SDS011;16586;48.976;9.584;2022-07-23T09:08:08;3.30;;;3.10;;
487;SDS011;16586;48.976;9.584;2022-07-23T09:10:43;3.80;;;2.63;;
487;SDS011;16586;48.976;9.584;2022-07-23T09:13:25;4.85;;;4.55;;
487;SDS011;16586;48.976;9.584;2022-07-23T09:15:56;2.20;;;2.00;;
487;SDS011;16586;48.976;9.584;2022-07-23T09:18:28;2.92;;;2.33;;
487;SDS011;16586;48.976;9.584;2022-07-23T09:21:05;5.40;;;5.10;;
487;SDS011;16586;48.976;9.584;2022-07-23T09:23:41;3.25;;;3.05;;
487;SDS011;16586;48.976;9.584;2022-07-23T09:26:32;2.92;;;2.72;;
487;SDS011;16586;48.976;9.584;2022-07-23T09:29:05;3.05;;;2.88;;
487;SDS011;16586;48.976;9.584;2022-07-23T09:31:41;3.00;;;2.80;;
487;SDS011;16586;48.976;9.584;2022-07-23T09:34:11;3.40;;;3.00;;
487;SDS011;16586;48.976;9.584;2022-07-23T09:36:39;3.27;;;3.07;;
487;SDS011;16586;48.976;9.584;2022-07-23T09:39:09;2.88;;;2.75;;
487;SDS011;16586;48.976;9.584;2022-07-23T09:41:38;3.50;;;2.60;;
487;SDS011;16586;48.976;9.584;2022-07-23T09:44:07;2.80;;;2.60;;
487;SDS011;16586;48.976;9.584;2022-07-23T09:46:39;2.80;;;2.60;;
487;SDS011;16586;48.976;9.584;2022-07-23T09:49:13;3.65;;;3.45;;
487;SDS011;16586;48.976;9.584;2022-07-23T09:51:44;3.60;;;3.40;;
487;SDS011;16586;48.976;9.584;2022-07-23T09:54:22;5.57;;;5.28;;
487;SDS011;16586;48.976;9.584;2022-07-23T09:56:56;3.05;;;2.85;;
487;SDS011;16586;48.976;9.584;2022-07-23T09:59:24;3.35;;;3.15;;
487;SDS011;16586;48.976;9.584;2022-07-23T10:01:53;4.60;;;4.30;;
487;SDS011;16586;48.976;9.584;2022-07-23T10:04:22;4.10;;;3.90;;
487;SDS011;16586;48.976;9.584;2022-07-23T10:06:51;3.00;;;2.83;;
487;SDS011;16586;48.976;9.584;2022-07-23T10:09:23;9.88;;;9.38;;
487;SDS011;16586;48.976;9.584;2022-07-23T10:11:52;6.70;;;6.30;;
487;SDS011;16586;48.976;9.584;2022-07-23T10:14:24;3.33;;;3.13;;
487;SDS011;16586;48.976;9.584;2022-07-23T10:16:54;3.20;;;2.95;;
487;SDS011;16586;48.976;9.584;2022-07-23T10:19:22;2.70;;;2.50;;
487;SDS011;16586;48.976;9.584;2022-07-23T10:21:50;2.70;;;2.50;;
487;SDS011;16586;48.976;9.584;2022-07-23T10:24:23;2.60;;;2.40;;
487;SDS011;16586;48.976;9.584;2022-07-23T10:27:05;2.67;;;2.55;;
487;SDS011;16586;48.976;9.584;2022-07-23T10:29:47;2.60;;;2.40;;
487;SDS011;16586;48.976;9.584;2022-07-23T10:32:25;2.70;;;2.50;;
487;SDS011;16586;48.976;9.584;2022-07-23T10:35:03;17.65;;;16.75;;
487;SDS011;16586;48.976;9.584;2022-07-23T10:37:36;3.30;;;3.10;;
487;SDS011;16586;48.976;9.584;2022-07-23T10:40:10;3.60;;;3.40;;
487;SDS011;16586;48.976;9.584;2022-07-23T10:42:38;53.05;;;50.45;;
487;SDS011;16586;48.976;9.584;2022-07-23T10:47:50;7.38;;;6.97;;
487;SDS011;16586;48.976;9.584;2022-07-23T10:50:18;3.00;;;2.70;;
487;SDS011;16586;48.976;9.584;2022-07-23T10:55:42;3.28;;;3.08;;
487;SDS011;16586;48.976;9.584;2022-07-23T10:58:10;3.55;;;3.35;;
487;SDS011;16586;48.976;9.584;2022-07-23T11:00:43;4.70;;;4.40;;
487;SDS011;16586;48.976;9.584;2022-07-23T11:05:57;2.90;;;2.70;;
487;SDS011;16586;48.976;9.584;2022-07-23T11:08:25;2.97;;;2.78;;
487;SDS011;16586;48.976;9.584;2022-07-23T11:10:54;3.50;;;3.30;;
487;SDS011;16586;48.976;9.584;2022-07-23T11:13:44;44.15;;;42.00;;
487;SDS011;16586;48.976;9.584;2022-07-23T11:16:22;9.55;;;9.05;;
487;SDS011;16586;48.976;9.584;2022-07-23T11:18:54;2.85;;;2.65;;
487;SDS011;16586;48.976;9.584;2022-07-23T11:21:48;126.10;;;120.03;;
487;SDS011;16586;48.976;9.584;2022-07-23T11:24:19;3.65;;;3.45;;
487;SDS011;16586;48.976;9.584;2022-07-23T11:26:53;42.47;;;40.40;;
487;SDS011;16586;48.976;9.584;2022-07-23T11:29:42;152.40;;;145.10;;
487;SDS011;16586;48.976;9.584;2022-07-23T11:32:33;111.93;;;106.55;;
487;SDS011;16586;48.976;9.584;2022-07-23T11:35:03;2.30;;;2.10;;
487;SDS011;16586;48.976;9.584;2022-07-23T11:37:48;3.42;;;3.22;;
487;SDS011;16586;48.976;9.584;2022-07-23T11:40:18;173.03;;;164.77;;
487;SDS011;16586;48.976;9.584;2022-07-23T11:42:54;116.10;;;110.55;;
487;SDS011;16586;48.976;9.584;2022-07-23T11:45:24;156.77;;;149.25;;
487;SDS011;16586;48.976;9.584;2022-07-23T11:47:52;195.98;;;186.60;;
487;SDS011;16586;48.976;9.584;2022-07-23T11:50:24;162.95;;;155.15;;
487;SDS011;16586;48.976;9.584;2022-07-23T11:52:52;3.60;;;2.97;;
487;SDS011;16586;48.976;9.584;2022-07-23T11:55:19;153.60;;;146.25;;
487;SDS011;16586;48.976;9.584;2022-07-23T11:57:46;2.63;;;2.38;;
487;SDS011;16586;48.976;9.584;2022-07-23T12:00:16;94.78;;;90.22;;
487;SDS011;16586;48.976;9.584;2022-07-23T12:02:45;2.20;;;2.00;;
487;SDS011;16586;48.976;9.584;2022-07-23T12:05:14;2.50;;;2.30;;
487;SDS011;16586;48.976;9.584;2022-07-23T12:07:42;219.85;;;209.32;;
487;SDS011;16586;48.976;9.584;2022-07-23T12:10:15;204.27;;;194.50;;
487;SDS011;16586;48.976;9.584;2022-07-23T12:12:44;207.65;;;197.70;;
487;SDS011;16586;48.976;9.584;2022-07-23T12:15:12;190.85;;;181.73;;
487;SDS011;16586;48.976;9.584;2022-07-23T12:17:42;3.00;;;2.80;;
487;SDS011;16586;48.976;9.584;2022-07-23T12:20:12;3.40;;;3.00;;
487;SDS011;16586;48.976;9.584;2022-07-23T12:22:41;228.60;;;217.67;;
487;SDS011;16586;48.976;9.584;2022-07-23T12:25:09;2.65;;;2.45;;
487;SDS011;16586;48.976;9.584;2022-07-23T12:27:37;176.07;;;167.63;;
487;SDS011;16586;48.976;9.584;2022-07-23T12:30:15;97.22;;;92.55;;
487;SDS011;16586;48.976;9.584;2022-07-23T12:32:44;501.02;;;477.13;;
487;SDS011;16586;48.976;9.584;2022-07-23T12:35:13;157.63;;;150.07;;
487;SDS011;16586;48.976;9.584;2022-07-23T12:37:41;1109.13;;;999.90;;
487;SDS011;16586;48.976;9.584;2022-07-23T12:40:23;315.92;;;300.83;;
487;SDS011;16586;48.976;9.584;2022-07-23T12:42:53;1207.85;;;999.90;;
487;SDS011;16586;48.976;9.584;2022-07-23T12:45:21;292.53;;;278.57;;
487;SDS011;16586;48.976;9.584;2022-07-23T12:47:58;156.27;;;148.77;;
487;SDS011;16586;48.976;9.584;2022-07-23T12:50:35;325.80;;;310.23;;
487;SDS011;16586;48.976;9.584;2022-07-23T12:53:08;386.02;;;367.60;;
487;SDS011;16586;48.976;9.584;2022-07-23T12:55:36;180.93;;;172.25;;
487;SDS011;16586;48.976;9.584;2022-07-23T12:58:05;214.00;;;203.77;;
487;SDS011;16586;48.976;9.584;2022-07-23T13:00:48;233.52;;;222.32;;
487;SDS011;16586;48.976;9.584;2022-07-23T13:03:24;356.45;;;339.45;;
487;SDS011;16586;48.976;9.584;2022-07-23T13:05:53;153.13;;;145.80;;
487;SDS011;16586;48.976;9.584;2022-07-23T13:08:21;1298.68;;;999.90;;
487;SDS011;16586;48.976;9.584;2022-07-23T13:10:49;1261.85;;;999.90;;
487;SDS011;16586;48.976;9.584;2022-07-23T13:13:19;48.88;;;46.50;;
487;SDS011;16586;48.976;9.584;2022-07-23T13:15:47;3.10;;;2.90;;
487;SDS011;16586;48.976;9.584;2022-07-23T13:18:15;3.40;;;3.20;;
487;SDS011;16586;48.976;9.584;2022-07-23T13:20:44;3.13;;;2.63;;
487;SDS011;16586;48.976;9.584;2022-07-23T13:23:12;3.20;;;3.00;;
487;SDS011;16586;48.976;9.584;2022-07-23T13:25:39;3.10;;;2.90;;
487;SDS011;16586;48.976;9.584;2022-07-23T13:28:07;3.60;;;3.40;;
487;SDS011;16586;48.976;9.584;2022-07-23T13:30:34;3.10;;;2.90;;
487;SDS011;16586;48.976;9.584;2022-07-23T13:33:02;79.07;;;75.22;;
487;SDS011;16586;48.976;9.584;2022-07-23T13:35:30;3.05;;;2.85;;
487;SDS011;16586;48.976;9.584;2022-07-23T13:37:58;190.27;;;181.18;;
487;SDS011;16586;48.976;9.584;2022-07-23T13:40:25;4.20;;;3.95;;
487;SDS011;16586;48.976;9.584;2022-07-23T13:42:52;219.03;;;208.53;;
487;SDS011;16586;48.976;9.584;2022-07-23T13:45:20;4.43;;;4.13;;
487;SDS011;16586;48.976;9.584;2022-07-23T13:47:46;3.50;;;3.30;;
487;SDS011;16586;48.976;9.584;2022-07-23T13:50:13;155.77;;;148.30;;
487;SDS011;16586;48.976;9.584;2022-07-23T13:52:42;3.78;;;3.58;;
487;SDS011;16586;48.976;9.584;2022-07-23T13:55:10;1146.57;;;999.90;;
487;SDS011;16586;48.976;9.584;2022-07-23T13:57:38;1072.80;;;999.90;;
487;SDS011;16586;48.976;9.584;2022-07-23T14:00:07;1197.07;;;999.90;;
487;SDS011;16586;48.976;9.584;2022-07-23T14:02:36;1208.40;;;999.90;;
487;SDS011;16586;48.976;9.584;2022-07-23T14:05:04;1160.60;;;999.90;;
487;SDS011;16586;48.976;9.584;2022-07-23T14:07:32;1274.07;;;999.90;;
487;SDS011;16586;48.976;9.584;2022-07-23T14:10:00;1286.83;;;999.90;;
487;SDS011;16586;48.976;9.584;2022-07-23T14:12:28;1283.50;;;999.90;;
487;SDS011;16586;48.976;9.584;2022-07-23T14:14:55;1292.00;;;999.90;;
487;SDS011;16586;48.976;9.584;2022-07-23T14:17:22;547.08;;;520.97;;
487;SDS011;16586;48.976;9.584;2022-07-23T14:19:50;1347.45;;;999.90;;
487;SDS011;16586;48.976;9.584;2022-07-23T14:22:17;382.63;;;364.35;;
487;SDS011;16586;48.976;9.584;2022-07-23T14:24:44;1061.67;;;944.27;;
487;SDS011;16586;48.976;9.584;2022-07-23T14:27:11;171.73;;;163.48;;
487;SDS011;16586;48.976;9.584;2022-07-23T14:29:39;5.95;;;5.65;;
487;SDS011;16586;48.976;9.584;2022-07-23T14:32:06;280.52;;;267.13;;
487;SDS011;16586;48.976;9.584;2022-07-23T14:34:33;390.38;;;371.73;;
487;SDS011;16586;48.976;9.584;2022-07-23T14:37:00;1302.90;;;999.90;;
487;SDS011;16586;48.976;9.584;2022-07-23T14:39:28;636.28;;;605.95;;
487;SDS011;16586;48.976;9.584;2022-07-23T14:41:57;460.27;;;438.30;;
487;SDS011;16586;48.976;9.584;2022-07-23T14:44:24;351.40;;;334.60;;
487;SDS011;16586;48.976;9.584;2022-07-23T14:46:52;475.77;;;453.08;;
487;SDS011;16586;48.976;9.584;2022-07-23T14:49:19;1247.07;;;999.90;;
487;SDS011;16586;48.976;9.584;2022-07-23T14:51:47;1328.32;;;999.90;;
487;SDS011;16586;48.976;9.584;2022-07-23T14:54:14;61.90;;;58.90;;
487;SDS011;16586;48.976;9.584;2022-07-23T14:56:41;109.70;;;104.43;;
487;SDS011;16586;48.976;9.584;2022-07-23T14:59:08;90.75;;;86.38;;
487;SDS011;16586;48.976;9.584;2022-07-23T15:01:35;200.00;;;190.40;;
487;SDS011;16586;48.976;9.584;2022-07-23T15:04:03;161.23;;;153.52;;
487;SDS011;16586;48.976;9.584;2022-07-23T15:06:31;252.68;;;240.60;;
487;SDS011;16586;48.976;9.584;2022-07-23T15:08:58;91.40;;;87.00;;
487;SDS011;16586;48.976;9.584;2022-07-23T15:11:26;1300.38;;;999.90;;
487;SDS011;16586;48.976;9.584;2022-07-23T15:13:54;1287.32;;;999.90;;
487;SDS011;16586;48.976;9.584;2022-07-23T15:16:21;254.68;;;242.52;;
487;SDS011;16586;48.976;9.584;2022-07-23T15:18:48;162.63;;;154.82;;
487;SDS011;16586;48.976;9.584;2022-07-23T15:21:16;1131.82;;;999.90;;